Time;durP1;ratioP1;P1;durP2;ratioP2;P2;SDS_P1;SDS_P2;PMS_P1;PMS_P2;Temp;Humidity;BMP_temperature;BMP_pressure;BME280_temperature;BME280_humidity;BME280_pressure;Samples;Min_cycle;Max_cycle;Signal;HPM_P1;HPM_P2
2023/01/28 00:01:05;;;;;;;1999.90;999.90;;;4.10;99.90;;;;;;5058560;28;20406;-69
2023/01/28 00:03:31;;;;;;;1999.90;999.90;;;4.10;99.90;;;;;;5059448;28;20190;-69
2023/01/28 00:06:12;;;;;;;1999.90;999.90;;;4.10;99.90;;;;;;5058658;28;20450;-69
2023/01/28 00:08:38;;;;;;;1999.90;999.90;;;4.20;99.90;;;;;;5059300;28;20168;-69
2023/01/28 00:11:06;;;;;;;1999.90;999.90;;;4.20;99.90;;;;;;5040849;28;20194;-69
2023/01/28 00:13:32;;;;;;;1999.90;999.90;;;4.20;99.90;;;;;;5059422;28;20426;-69
2023/01/28 00:16:01;;;;;;;1999.90;999.90;;;4.20;99.90;;;;;;5059643;28;20439;-69
2023/01/28 00:18:28;;;;;;;1999.90;999.90;;;4.20;99.90;;;;;;5058848;28;20775;-69
2023/01/28 00:21:03;;;;;;;1999.90;999.90;;;4.10;99.90;;;;;;5057843;28;20470;-69
2023/01/28 00:23:31;;;;;;;1999.90;999.90;;;4.10;99.90;;;;;;5059545;28;20434;-69
2023/01/28 00:26:06;;;;;;;1999.90;999.90;;;4.20;99.90;;;;;;5060753;28;20632;-69
2023/01/28 00:28:31;;;;;;;1999.90;999.90;;;4.10;99.90;;;;;;5063115;28;20412;-69
2023/01/28 00:30:57;;;;;;;1999.90;999.90;;;4.10;99.90;;;;;;5062771;28;20402;-69
2023/01/28 00:33:23;;;;;;;1999.90;999.90;;;4.10;99.90;;;;;;5062836;28;20190;-69
2023/01/28 00:35:59;;;;;;;1999.90;999.90;;;4.10;99.90;;;;;;5063287;28;20532;-69
2023/01/28 00:38:25;;;;;;;1999.90;999.90;;;4.20;99.90;;;;;;5063275;28;20405;-69
2023/01/28 00:40:51;;;;;;;1999.90;999.90;;;4.20;99.90;;;;;;5063256;28;20394;-69
2023/01/28 00:43:16;;;;;;;1999.90;999.90;;;4.20;99.90;;;;;;5062930;28;20437;-69
2023/01/28 00:45:42;;;;;;;1999.90;999.90;;;4.30;99.90;;;;;;5063093;28;20156;-69
2023/01/28 00:48:08;;;;;;;1999.90;999.90;;;4.20;99.90;;;;;;5063301;28;20880;-69
2023/01/28 00:50:34;;;;;;;1999.90;999.90;;;4.20;99.90;;;;;;5063055;28;20164;-69
2023/01/28 00:53:00;;;;;;;1999.90;999.90;;;4.20;99.90;;;;;;5062736;28;20195;-69
2023/01/28 00:55:27;;;;;;;1999.90;999.90;;;4.10;99.90;;;;;;5063524;28;20999;-69
2023/01/28 00:57:52;;;;;;;1999.90;999.90;;;4.10;99.90;;;;;;5062723;28;20406;-69
2023/01/28 01:00:20;;;;;;;1999.90;999.90;;;4.00;99.90;;;;;;5062754;28;20453;-69
2023/01/28 01:02:46;;;;;;;1999.90;999.90;;;3.90;99.90;;;;;;5063110;28;20223;-70
2023/01/28 01:05:12;;;;;;;1999.90;999.90;;;3.80;99.90;;;;;;5061598;28;20429;-69
2023/01/28 01:07:40;;;;;;;1999.90;999.90;;;3.70;99.90;;;;;;5059184;28;20195;-69
2023/01/28 01:10:11;;;;;;;1999.90;999.90;;;3.60;99.90;;;;;;5060416;28;20171;-69
2023/01/28 01:12:38;;;;;;;1999.90;999.90;;;3.50;99.90;;;;;;5062096;28;20807;-69
2023/01/28 01:15:09;;;;;;;1999.90;999.90;;;3.50;99.90;;;;;;5062171;28;20529;-69
2023/01/28 01:17:38;;;;;;;1999.90;999.90;;;3.40;99.90;;;;;;5062110;28;20172;-69
2023/01/28 01:20:06;;;;;;;1999.90;999.90;;;3.30;99.90;;;;;;5062437;28;20821;-69
2023/01/28 01:22:33;;;;;;;1999.90;999.90;;;3.20;99.90;;;;;;5061809;28;20184;-69
2023/01/28 01:24:59;;;;;;;1999.90;999.90;;;3.10;99.90;;;;;;5061811;28;20507;-69
2023/01/28 01:27:24;;;;;;;1999.90;999.90;;;3.10;99.90;;;;;;5060965;28;20450;-69
2023/01/28 01:29:50;;;;;;;1999.90;999.90;;;3.00;99.90;;;;;;5061592;28;20270;-69
2023/01/28 01:32:17;;;;;;;1999.90;999.90;;;3.00;99.90;;;;;;5060204;28;20199;-70
2023/01/28 01:34:43;;;;;;;1999.90;999.90;;;2.90;99.90;;;;;;5060282;28;20197;-70
2023/01/28 01:37:09;;;;;;;1999.90;999.90;;;2.90;99.90;;;;;;5059687;28;20180;-69
2023/01/28 01:39:35;;;;;;;1999.90;999.90;;;2.90;99.90;;;;;;5060667;28;20171;-69
2023/01/28 01:42:01;;;;;;;1999.90;999.90;;;2.90;99.90;;;;;;5059609;28;20168;-69
2023/01/28 01:44:51;;;;;;;1999.90;999.90;;;2.80;99.90;;;;;;5059610;28;20446;-69
2023/01/28 01:47:17;;;;;;;1999.90;999.90;;;2.80;99.90;;;;;;5059790;28;20227;-69
2023/01/28 01:49:43;;;;;;;1999.90;999.90;;;2.80;99.90;;;;;;5058927;28;20171;-69
2023/01/28 01:52:18;;;;;;;1999.90;999.90;;;2.80;99.90;;;;;;5057125;28;20302;-70
2023/01/28 01:54:47;;;;;;;1999.90;999.90;;;2.80;99.90;;;;;;5057655;28;20183;-70
2023/01/28 01:57:17;;;;;;;1999.90;999.90;;;2.80;99.90;;;;;;5057634;28;20178;-70
2023/01/28 01:59:43;;;;;;;1999.90;999.90;;;2.90;99.90;;;;;;5056807;28;20179;-70
2023/01/28 02:02:10;;;;;;;1999.90;999.90;;;2.90;99.90;;;;;;5057374;28;20672;-70
2023/01/28 02:04:40;;;;;;;1999.90;999.90;;;2.90;99.90;;;;;;5057796;28;20235;-69
2023/01/28 02:07:07;;;;;;;1999.90;999.90;;;3.00;99.90;;;;;;5057443;28;20564;-70
2023/01/28 02:09:35;;;;;;;1999.90;999.90;;;3.00;99.90;;;;;;5058721;28;20168;-70
2023/01/28 02:12:09;;;;;;;1999.90;999.90;;;3.00;99.90;;;;;;5059134;28;20548;-70
2023/01/28 02:14:44;;;;;;;1999.90;999.90;;;3.00;99.90;;;;;;5058205;28;20799;-70
2023/01/28 02:17:10;;;;;;;1999.90;999.90;;;3.10;99.90;;;;;;5059248;28;20180;-70
2023/01/28 02:19:43;;;;;;;1999.90;999.90;;;3.10;99.90;;;;;;5059662;28;20426;-71
2023/01/28 02:22:27;;;;;;;1999.90;999.90;;;3.10;99.90;;;;;;5059152;28;20932;-69
2023/01/28 02:25:13;;;;;;;1999.90;999.90;;;3.10;99.90;;;;;;5058902;28;20270;-69
2023/01/28 02:28:06;;;;;;;1999.90;999.90;;;3.10;99.90;;;;;;5058561;28;20556;-69
2023/01/28 02:30:40;;;;;;;1999.90;999.90;;;3.20;99.90;;;;;;5059546;28;20164;-70
2023/01/28 02:33:29;;;;;;;1999.90;999.90;;;3.10;99.90;;;;;;5060422;28;20179;-70
2023/01/28 02:35:55;;;;;;;1999.90;999.90;;;3.20;99.90;;;;;;5060407;28;20417;-70
2023/01/28 02:38:39;;;;;;;1999.90;999.90;;;3.20;99.90;;;;;;5060584;28;20540;-71
2023/01/28 02:41:11;;;;;;;1999.90;999.90;;;3.20;99.90;;;;;;5060006;28;20402;-69
2023/01/28 02:43:45;;;;;;;1999.90;999.90;;;3.20;99.90;;;;;;5060110;28;20246;-69
2023/01/28 02:48:58;;;;;;;1999.90;999.90;;;3.10;99.90;;;;;;5059539;28;20182;-70
2023/01/28 02:51:33;;;;;;;1999.90;999.90;;;3.10;99.90;;;;;;5058719;28;20685;-70
2023/01/28 02:54:07;;;;;;;1999.90;999.90;;;3.20;99.90;;;;;;5059514;28;20198;-70
2023/01/28 02:56:54;;;;;;;1999.90;999.90;;;3.20;99.90;;;;;;5059913;28;20401;-70
2023/01/28 02:59:35;;;;;;;1999.90;999.90;;;3.20;99.90;;;;;;5058899;28;20176;-69
2023/01/28 03:02:13;;;;;;;1999.90;999.90;;;3.20;99.90;;;;;;5058701;28;20171;-70
2023/01/28 03:04:56;;;;;;;1999.90;999.90;;;3.30;99.90;;;;;;5059468;28;20430;-70
2023/01/28 03:07:26;;;;;;;1999.90;999.90;;;3.30;99.90;;;;;;5059178;28;20587;-70
2023/01/28 03:09:57;;;;;;;1999.90;999.90;;;3.20;99.90;;;;;;5058235;28;20809;-69
2023/01/28 03:38:22;;;;;;;1999.90;999.90;;;3.20;99.90;;;;;;5057232;28;20182;-70
2023/01/28 03:40:59;;;;;;;1999.90;999.90;;;3.20;99.90;;;;;;5057345;28;20629;-70
2023/01/28 03:43:25;;;;;;;1999.90;999.90;;;3.20;99.90;;;;;;5057025;28;20211;-70
2023/01/28 03:45:51;;;;;;;1999.90;999.90;;;3.20;99.90;;;;;;5056959;28;20953;-70
2023/01/28 03:48:22;;;;;;;1999.90;999.90;;;3.20;99.90;;;;;;5056855;28;20406;-70
2023/01/28 03:50:49;;;;;;;1999.90;999.90;;;3.30;99.90;;;;;;5056937;28;20207;-70
2023/01/28 03:53:15;;;;;;;1999.90;999.90;;;3.30;99.90;;;;;;5056308;28;20199;-70
2023/01/28 03:55:42;;;;;;;1999.90;999.90;;;3.30;99.90;;;;;;5056271;28;20191;-70
2023/01/28 03:58:08;;;;;;;1999.90;999.90;;;3.30;99.90;;;;;;5057056;28;20406;-70
2023/01/28 04:00:40;;;;;;;1999.90;999.90;;;3.30;99.90;;;;;;5056241;28;20501;-70
2023/01/28 04:03:18;;;;;;;1999.90;999.90;;;3.40;99.90;;;;;;5056811;28;20452;-70
2023/01/28 04:05:57;;;;;;;1999.90;999.90;;;3.30;99.90;;;;;;5056237;28;20402;-70
2023/01/28 04:08:23;;;;;;;1999.90;999.90;;;3.30;99.90;;;;;;5056838;28;20402;-70
2023/01/28 04:10:49;;;;;;;1999.90;999.90;;;3.30;99.90;;;;;;5055553;28;20176;-69
2023/01/28 04:13:15;;;;;;;1999.90;999.90;;;3.30;99.90;;;;;;5055061;28;20475;-70
2023/01/28 04:15:42;;;;;;;1999.90;999.90;;;3.30;99.90;;;;;;5055605;28;20164;-70
2023/01/28 04:18:08;;;;;;;1999.90;999.90;;;3.30;99.90;;;;;;5055547;28;20167;-70
2023/01/28 04:20:34;;;;;;;1999.90;999.90;;;3.30;99.90;;;;;;5055084;28;20834;-69
2023/01/28 04:23:00;;;;;;;1999.90;999.90;;;3.20;99.90;;;;;;5055107;28;20163;-70
2023/01/28 04:25:26;;;;;;;1999.90;999.90;;;3.30;99.90;;;;;;5053967;28;20167;-70
2023/01/28 04:27:52;;;;;;;1999.90;999.90;;;3.20;99.90;;;;;;5036084;28;20461;-70
2023/01/28 04:30:17;;;;;;;1999.90;999.90;;;3.20;99.90;;;;;;5035066;28;20650;-69
2023/01/28 04:32:49;;;;;;;1999.90;999.90;;;3.30;99.90;;;;;;5036105;28;20223;-70
2023/01/28 04:35:15;;;;;;;1999.90;999.90;;;3.10;99.90;;;;;;5035075;28;20184;-70
2023/01/28 04:37:41;;;;;;;1999.90;999.90;;;3.10;99.90;;;;;;5034420;28;20411;-70
2023/01/28 04:40:08;;;;;;;1999.90;999.90;;;3.10;99.90;;;;;;5035155;28;20549;-70
2023/01/28 04:42:33;;;;;;;1999.90;999.90;;;3.20;99.90;;;;;;5036079;28;20172;-70
2023/01/28 04:44:59;;;;;;;1999.90;999.90;;;3.20;99.90;;;;;;5035435;28;20212;-70
2023/01/28 04:47:25;;;;;;;1999.90;999.90;;;3.20;99.90;;;;;;5035209;28;20323;-70
2023/01/28 04:49:50;;;;;;;1999.90;999.90;;;3.20;99.90;;;;;;5035724;28;20175;-70
2023/01/28 04:52:16;;;;;;;1999.90;999.90;;;3.20;99.90;;;;;;5036458;28;20176;-70
2023/01/28 04:54:41;;;;;;;1999.90;999.90;;;3.20;99.90;;;;;;5035689;28;20188;-70
2023/01/28 04:57:07;;;;;;;1999.90;999.90;;;3.20;99.90;;;;;;5035847;28;20200;-70
2023/01/28 04:59:32;;;;;;;1999.90;999.90;;;3.20;99.90;;;;;;5035994;28;20172;-69
2023/01/28 05:01:58;;;;;;;1999.90;999.90;;;3.20;99.90;;;;;;5036509;28;20630;-70
2023/01/28 05:04:24;;;;;;;1999.90;999.90;;;3.20;99.90;;;;;;5036012;28;20246;-70
2023/01/28 05:06:49;;;;;;;1999.90;999.90;;;3.20;99.90;;;;;;5036687;28;20230;-70
2023/01/28 05:09:15;;;;;;;1999.90;999.90;;;3.10;99.90;;;;;;5035034;28;20175;-70
2023/01/28 05:11:41;;;;;;;1999.90;999.90;;;3.10;99.90;;;;;;5034623;28;20419;-70
2023/01/28 05:14:07;;;;;;;1999.90;999.90;;;3.10;99.90;;;;;;5038718;28;20188;-69
2023/01/28 05:16:33;;;;;;;1999.90;999.90;;;3.10;99.90;;;;;;5037585;28;20168;-69
2023/01/28 05:19:00;;;;;;;1999.90;999.90;;;3.00;99.90;;;;;;5038302;28;20200;-70
2023/01/28 05:21:25;;;;;;;1999.90;999.90;;;3.00;99.90;;;;;;5038890;28;20630;-70
2023/01/28 05:23:51;;;;;;;1999.90;999.90;;;3.00;99.90;;;;;;5038526;28;20231;-69
2023/01/28 05:26:17;;;;;;;1999.90;999.90;;;3.00;99.90;;;;;;5019636;28;21035;-69
2023/01/28 05:28:42;;;;;;;1999.90;999.90;;;3.00;99.90;;;;;;5037932;28;20251;-71
2023/01/28 05:31:09;;;;;;;1999.90;999.90;;;3.00;99.90;;;;;;5038877;28;20173;-70
2023/01/28 05:33:35;;;;;;;1999.90;999.90;;;3.00;99.90;;;;;;5039157;28;20233;-70
2023/01/28 05:36:01;;;;;;;1999.90;999.90;;;3.00;99.90;;;;;;5039725;28;20257;-71
2023/01/28 05:38:26;;;;;;;1999.90;999.90;;;3.00;99.90;;;;;;5039336;28;20411;-70
2023/01/28 05:40:52;;;;;;;1999.90;999.90;;;3.00;99.90;;;;;;5038327;28;20191;-70
2023/01/28 05:43:17;;;;;;;1999.90;999.90;;;3.00;99.90;;;;;;5038505;28;20244;-69
2023/01/28 05:45:43;;;;;;;1999.90;999.90;;;3.10;99.90;;;;;;5038573;28;20191;-70
2023/01/28 05:48:09;;;;;;;1999.90;999.90;;;3.10;99.90;;;;;;5039168;28;20173;-70
2023/01/28 05:50:34;;;;;;;1999.90;999.90;;;3.00;99.90;;;;;;5038712;28;20187;-70
2023/01/28 05:53:00;;;;;;;1999.90;999.90;;;3.00;99.90;;;;;;5038589;28;20267;-69
2023/01/28 05:55:25;;;;;;;1999.90;999.90;;;3.00;99.90;;;;;;5037905;28;20219;-70
2023/01/28 05:57:51;;;;;;;1999.90;999.90;;;3.00;99.90;;;;;;5038144;28;20180;-70
2023/01/28 06:00:17;;;;;;;1999.90;999.90;;;2.90;99.90;;;;;;5037322;28;20168;-70
2023/01/28 06:02:42;;;;;;;1999.90;999.90;;;2.90;99.90;;;;;;5037364;28;20160;-70
2023/01/28 06:05:08;;;;;;;1999.90;999.90;;;2.90;99.90;;;;;;5036354;28;20269;-69
2023/01/28 06:07:34;;;;;;;1999.90;999.90;;;2.80;99.90;;;;;;5036514;28;20204;-69
2023/01/28 06:10:00;;;;;;;1999.90;999.90;;;2.80;99.90;;;;;;5035775;28;20165;-70
2023/01/28 06:12:26;;;;;;;1999.90;999.90;;;2.80;99.90;;;;;;5035830;28;20490;-70
2023/01/28 06:14:51;;;;;;;1999.90;999.90;;;2.80;99.90;;;;;;5036603;28;20188;-70
2023/01/28 06:17:17;;;;;;;1999.90;999.90;;;2.80;99.90;;;;;;5036210;28;20196;-70
2023/01/28 06:19:43;;;;;;;1999.90;999.90;;;2.80;99.90;;;;;;5036288;28;20175;-69
2023/01/28 06:22:09;;;;;;;1999.90;999.90;;;2.90;99.90;;;;;;5037159;28;20176;-69
2023/01/28 06:24:34;;;;;;;1999.90;999.90;;;2.90;99.90;;;;;;5036390;28;20203;-69
2023/01/28 06:27:00;;;;;;;1999.90;999.90;;;2.90;99.90;;;;;;5036740;28;20192;-70
2023/01/28 06:29:26;;;;;;;1999.90;999.90;;;2.90;99.90;;;;;;5036316;28;20657;-70
2023/01/28 06:31:52;;;;;;;1999.90;999.90;;;2.90;99.90;;;;;;5036971;28;20161;-70
2023/01/28 06:34:18;;;;;;;1999.90;999.90;;;2.90;99.90;;;;;;5037655;28;20431;-70
2023/01/28 06:36:43;;;;;;;1999.90;999.90;;;2.90;99.90;;;;;;5037905;28;20783;-70
2023/01/28 06:39:09;;;;;;;1999.90;999.90;;;2.90;99.90;;;;;;5038183;28;20165;-69
2023/01/28 06:41:35;;;;;;;1999.90;999.90;;;2.90;99.90;;;;;;5038524;28;20168;-69
2023/01/28 06:44:01;;;;;;;1999.90;999.90;;;2.90;99.90;;;;;;5037658;28;20439;-70
2023/01/28 06:46:26;;;;;;;1999.90;999.90;;;3.00;99.90;;;;;;5037957;28;20639;-70
2023/01/28 06:48:52;;;;;;;1999.90;999.90;;;3.00;99.90;;;;;;5039882;28;20176;-70
2023/01/28 06:51:18;;;;;;;1999.90;999.90;;;3.00;99.90;;;;;;5037897;28;20407;-70
2023/01/28 06:53:43;;;;;;;1999.90;999.90;;;3.10;99.90;;;;;;5039230;28;20195;-70
2023/01/28 06:56:09;;;;;;;1999.90;999.90;;;3.00;99.90;;;;;;5038344;28;20222;-70
2023/01/28 06:58:34;;;;;;;1999.90;999.90;;;3.10;99.90;;;;;;5038967;28;20192;-70
2023/01/28 07:01:00;;;;;;;1999.90;999.90;;;3.10;99.90;;;;;;5038261;28;20172;-70
2023/01/28 07:03:26;;;;;;;1999.90;999.90;;;3.10;99.90;;;;;;5039115;28;20195;-70
2023/01/28 07:05:51;;;;;;;1999.90;999.90;;;3.00;99.90;;;;;;5038772;28;20414;-69
2023/01/28 07:08:17;;;;;;;1999.90;999.90;;;3.00;99.90;;;;;;5037386;28;20172;-70
2023/01/28 07:10:43;;;;;;;1999.90;999.90;;;2.90;99.90;;;;;;5036645;28;20698;-70
2023/01/28 07:13:09;;;;;;;1999.90;999.90;;;2.70;99.90;;;;;;5037448;28;20232;-70
2023/01/28 07:15:35;;;;;;;1999.90;999.90;;;2.80;99.90;;;;;;5036076;28;20442;-69
2023/01/28 07:18:00;;;;;;;1999.90;999.90;;;2.80;99.90;;;;;;5036244;28;20187;-70
2023/01/28 07:20:26;;;;;;;1999.90;999.90;;;2.80;99.90;;;;;;5036403;28;20183;-69
2023/01/28 07:22:52;;;;;;;1999.90;999.90;;;2.90;99.90;;;;;;5037371;28;20176;-69
2023/01/28 07:25:18;;;;;;;1999.90;999.90;;;2.80;99.90;;;;;;5037643;28;20414;-70
2023/01/28 07:27:48;;;;;;;1999.90;999.90;;;2.90;99.90;;;;;;5038279;28;20192;-70
2023/01/28 07:30:14;;;;;;;1999.90;999.90;;;2.90;99.90;;;;;;5038504;28;20391;-70
2023/01/28 07:32:39;;;;;;;1999.90;999.90;;;2.90;99.90;;;;;;5038108;28;20518;-70
2023/01/28 07:35:05;;;;;;;1999.90;999.90;;;2.90;99.90;;;;;;5038097;28;20465;-70
2023/01/28 07:37:31;;;;;;;1999.90;999.90;;;2.90;99.90;;;;;;5039066;28;20537;-70
2023/01/28 07:39:56;;;;;;;1999.90;999.90;;;2.90;99.90;;;;;;5038094;28;20183;-70
2023/01/28 07:42:22;;;;;;;1999.90;999.90;;;2.90;99.90;;;;;;5038864;28;20203;-69
2023/01/28 07:44:48;;;;;;;1999.90;999.90;;;2.90;99.90;;;;;;5037657;28;20219;-70
2023/01/28 07:47:14;;;;;;;1999.90;999.90;;;2.90;99.90;;;;;;5037321;28;20200;-70
2023/01/28 07:49:39;;;;;;;1999.90;999.90;;;3.00;99.90;;;;;;5035726;28;20223;-69
2023/01/28 07:52:06;;;;;;;1999.90;999.90;;;3.00;99.90;;;;;;5032434;28;20513;-70
2023/01/28 07:54:32;;;;;;;1999.90;999.90;;;3.00;99.90;;;;;;5032124;28;20241;-69
2023/01/28 07:56:57;;;;;;;1999.90;999.90;;;3.00;99.90;;;;;;5032078;28;20412;-70
2023/01/28 07:59:23;;;;;;;1999.90;999.90;;;3.00;99.90;;;;;;5031865;28;20180;-69
2023/01/28 08:01:49;;;;;;;1999.90;999.90;;;3.10;99.90;;;;;;5032037;28;20275;-69
2023/01/28 08:04:14;;;;;;;1999.90;999.90;;;3.10;99.90;;;;;;5031929;28;20618;-70
2023/01/28 08:06:40;;;;;;;1999.90;999.90;;;3.00;99.90;;;;;;5031833;28;20241;-70
2023/01/28 08:09:07;;;;;;;1999.90;999.90;;;3.00;99.90;;;;;;5032746;28;20168;-70
2023/01/28 08:11:33;;;;;;;1999.90;999.90;;;3.00;99.90;;;;;;5032223;28;20251;-70
2023/01/28 08:13:59;;;;;;;1999.90;999.90;;;2.90;99.90;;;;;;5031615;28;20568;-69
2023/01/28 08:16:26;;;;;;;1999.90;999.90;;;2.80;99.90;;;;;;5031946;28;20176;-70
2023/01/28 08:18:52;;;;;;;1999.90;999.90;;;2.80;99.90;;;;;;5031872;28;20767;-69
2023/01/28 08:21:17;;;;;;;1999.90;999.90;;;2.70;99.90;;;;;;5031838;28;20172;-69
2023/01/28 08:23:43;;;;;;;1999.90;999.90;;;2.70;99.90;;;;;;5031878;28;20192;-70
2023/01/28 08:26:08;;;;;;;1999.90;999.90;;;2.70;99.90;;;;;;5031722;28;20195;-70
2023/01/28 08:28:34;;;;;;;1999.90;999.90;;;2.70;99.90;;;;;;5031852;28;20164;-70
2023/01/28 08:31:00;;;;;;;1999.90;999.90;;;2.70;99.90;;;;;;5031654;28;20178;-70
2023/01/28 08:33:26;;;;;;;1999.90;999.90;;;2.80;99.90;;;;;;5031791;28;20224;-69
2023/01/28 08:35:51;;;;;;;1999.90;999.90;;;2.80;99.90;;;;;;5031751;28;20176;-70
2023/01/28 08:38:19;;;;;;;1999.90;999.90;;;2.70;99.90;;;;;;5031736;28;20403;-69
2023/01/28 08:40:49;;;;;;;1999.90;999.90;;;2.80;99.90;;;;;;5031463;28;20185;-69
2023/01/28 08:43:15;;;;;;;1999.90;999.90;;;2.80;99.90;;;;;;5031605;28;20246;-69
2023/01/28 08:45:41;;;;;;;1999.90;999.90;;;2.70;99.90;;;;;;5031958;28;20165;-69
2023/01/28 08:48:10;;;;;;;1999.90;999.90;;;2.70;99.90;;;;;;5035307;28;20507;-69
2023/01/28 08:50:37;;;;;;;1999.90;999.90;;;2.70;99.90;;;;;;5035136;28;20160;-70
2023/01/28 08:53:07;;;;;;;1999.90;999.90;;;2.70;99.90;;;;;;5035453;28;20270;-70
2023/01/28 08:55:33;;;;;;;1999.90;999.90;;;2.80;99.90;;;;;;5035441;28;20541;-70
2023/01/28 08:58:04;;;;;;;1999.90;999.90;;;2.80;99.90;;;;;;5034922;28;20176;-69
2023/01/28 09:00:29;;;;;;;1999.90;999.90;;;2.80;99.90;;;;;;5035088;28;20407;-70
2023/01/28 09:02:55;;;;;;;1999.90;999.90;;;2.90;99.90;;;;;;5035052;28;20177;-70
2023/01/28 09:05:21;;;;;;;1999.90;999.90;;;2.90;99.90;;;;;;5035006;28;20654;-69
2023/01/28 09:07:47;;;;;;;1999.90;999.90;;;3.00;99.90;;;;;;5034888;28;20606;-70
2023/01/28 09:10:13;;;;;;;1999.90;999.90;;;3.00;99.90;;;;;;5034972;28;20403;-69
2023/01/28 09:12:38;;;;;;;1999.90;999.90;;;3.00;99.90;;;;;;5035116;28;20180;-69
2023/01/28 09:15:05;;;;;;;1999.90;999.90;;;3.00;99.90;;;;;;5035083;28;20192;-69
2023/01/28 09:17:30;;;;;;;1999.90;999.90;;;3.10;99.90;;;;;;5034791;28;20235;-70
2023/01/28 09:19:56;;;;;;;1999.90;999.90;;;3.10;99.90;;;;;;5034740;28;20172;-69
2023/01/28 09:22:22;;;;;;;1999.90;999.90;;;3.10;99.90;;;;;;5034885;28;20259;-70
2023/01/28 09:24:47;;;;;;;1999.90;999.90;;;3.10;99.90;;;;;;5034788;28;20227;-69
2023/01/28 09:27:13;;;;;;;1999.90;999.90;;;3.10;99.90;;;;;;5034635;28;20250;-69
2023/01/28 09:29:38;;;;;;;1999.90;999.90;;;3.00;99.90;;;;;;5016907;28;20549;-70
2023/01/28 09:32:06;;;;;;;1999.90;999.90;;;2.90;99.90;;;;;;5034812;28;20160;-70
2023/01/28 09:34:31;;;;;;;1999.90;999.90;;;3.00;99.90;;;;;;5034620;28;20196;-70
2023/01/28 09:36:57;;;;;;;1999.90;999.90;;;3.10;99.90;;;;;;5034481;28;20181;-69
2023/01/28 09:39:24;;;;;;;1999.90;999.90;;;3.10;99.90;;;;;;5034381;28;20916;-70
2023/01/28 09:41:56;;;;;;;1999.90;999.90;;;3.10;99.90;;;;;;5034728;28;20184;-69
2023/01/28 09:44:35;;;;;;;1999.90;999.90;;;3.10;99.90;;;;;;5034531;28;20212;-69
2023/01/28 09:47:10;;;;;;;1999.90;999.90;;;3.10;99.90;;;;;;5034335;28;20196;-69
2023/01/28 09:49:42;;;;;;;1999.90;999.90;;;3.20;99.90;;;;;;5038312;28;20534;-70
2023/01/28 09:52:13;;;;;;;1999.90;999.90;;;3.30;99.90;;;;;;5059776;28;20551;-70
2023/01/28 09:54:45;;;;;;;1999.90;999.90;;;3.30;99.90;;;;;;5059544;28;20187;-70
2023/01/28 09:57:19;;;;;;;1999.90;999.90;;;3.40;99.90;;;;;;5059057;28;20405;-70
2023/01/28 09:59:44;;;;;;;1999.90;999.90;;;3.40;99.90;;;;;;5059009;28;20168;-70
2023/01/28 10:02:32;;;;;;;1999.90;999.90;;;3.40;99.90;;;;;;5059741;28;20182;-69
2023/01/28 10:05:13;;;;;;;1999.90;999.90;;;3.50;99.90;;;;;;5058665;28;20245;-68
2023/01/28 10:07:55;;;;;;;1999.90;999.90;;;3.40;99.90;;;;;;5059730;28;20469;-71
2023/01/28 10:10:36;;;;;;;1999.90;999.90;;;3.50;99.90;;;;;;5058012;28;20168;-71
2023/01/28 10:13:27;;;;;;;1999.90;999.90;;;3.40;99.90;;;;;;5058162;28;20166;-70
2023/01/28 10:16:22;;;;;;;1999.90;999.90;;;3.40;99.90;;;;;;5058249;28;20168;-70
2023/01/28 10:18:57;;;;;;;1999.90;999.90;;;3.40;99.90;;;;;;5052479;28;20184;-70
2023/01/28 10:21:22;;;;;;;1999.90;999.90;;;3.30;99.90;;;;;;5057544;28;20201;-70
2023/01/28 10:24:02;;;;;;;1999.90;999.90;;;3.40;99.90;;;;;;5058461;28;20184;-69
2023/01/28 10:26:35;;;;;;;1999.90;999.90;;;3.40;99.90;;;;;;5056657;28;20215;-69
2023/01/28 10:29:16;;;;;;;1999.90;999.90;;;3.40;99.90;;;;;;5055432;28;20227;-70
2023/01/28 10:31:53;;;;;;;1999.90;999.90;;;3.40;99.90;;;;;;5055928;28;20263;-70
2023/01/28 10:34:20;;;;;;;1999.90;999.90;;;3.20;99.90;;;;;;5054842;28;20199;-69
2023/01/28 10:36:47;;;;;;;1999.90;999.90;;;3.20;99.90;;;;;;5055041;28;20179;-70
2023/01/28 10:39:19;;;;;;;1999.90;999.90;;;3.20;99.90;;;;;;5055370;28;20186;-70
2023/01/28 10:41:44;;;;;;;1999.90;999.90;;;3.20;99.90;;;;;;5055357;28;20163;-70
2023/01/28 10:44:18;;;;;;;1999.90;999.90;;;3.20;99.90;;;;;;5054319;28;20210;-70
2023/01/28 10:46:47;;;;;;;1999.90;999.90;;;3.30;99.90;;;;;;5054587;28;20199;-69
2023/01/28 10:49:20;;;;;;;1999.90;999.90;;;3.30;99.90;;;;;;5054302;28;20299;-70
2023/01/28 10:51:45;;;;;;;1999.90;999.90;;;3.30;99.90;;;;;;5055783;28;20163;-70
2023/01/28 10:54:26;;;;;;;1999.90;999.90;;;3.50;99.90;;;;;;5057042;28;20188;-69
2023/01/28 10:56:55;;;;;;;1999.90;999.90;;;3.60;99.90;;;;;;5056877;28;20539;-69
2023/01/28 10:59:26;;;;;;;1999.90;999.90;;;3.80;99.90;;;;;;5057613;28;20194;-70
2023/01/28 11:02:04;;;;;;;1999.90;999.90;;;4.00;99.90;;;;;;5057855;28;20402;-70
2023/01/28 11:04:34;;;;;;;1999.90;999.90;;;4.00;99.90;;;;;;5058500;28;20426;-70
2023/01/28 11:07:16;;;;;;;1999.90;999.90;;;4.00;99.90;;;;;;5058007;28;20269;-70
2023/01/28 11:09:45;;;;;;;1999.90;999.90;;;3.90;99.90;;;;;;5056741;28;20210;-69
2023/01/28 11:12:21;;;;;;;1999.90;999.90;;;3.90;99.90;;;;;;5056994;28;20493;-69
2023/01/28 11:14:54;;;;;;;1999.90;999.90;;;3.90;99.90;;;;;;5057697;28;20257;-70
2023/01/28 11:17:24;;;;;;;1999.90;999.90;;;4.00;99.90;;;;;;5057781;28;20417;-70
2023/01/28 11:19:52;;;;;;;1999.90;999.90;;;4.00;99.90;;;;;;5058286;28;20417;-69
2023/01/28 11:22:23;;;;;;;1999.90;999.90;;;4.00;99.90;;;;;;5058091;28;20661;-69
2023/01/28 11:24:49;;;;;;;1999.90;999.90;;;4.10;99.90;;;;;;5056584;28;20452;-70
2023/01/28 11:27:17;;;;;;;1999.90;999.90;;;4.10;99.90;;;;;;5057726;28;20442;-70
2023/01/28 11:29:43;;;;;;;1999.90;999.90;;;4.20;99.90;;;;;;5056386;28;20156;-70
2023/01/28 11:32:19;;;;;;;1999.90;999.90;;;4.10;99.90;;;;;;5057521;28;20405;-70
2023/01/28 11:34:59;;;;;;;1999.90;999.90;;;4.20;99.90;;;;;;5058071;28;20421;-70
2023/01/28 11:37:26;;;;;;;1999.90;999.90;;;4.30;99.90;;;;;;5059212;28;20433;-69
2023/01/28 11:40:21;;;;;;;1999.90;999.90;;;4.20;99.90;;;;;;5057800;28;20417;-69
2023/01/28 11:42:49;;;;;;;1999.90;999.90;;;5.20;99.90;;;;;;5037155;28;20508;-70
2023/01/28 11:45:17;;;;;;;1999.90;999.90;;;4.40;99.90;;;;;;5057757;28;20865;-70
2023/01/28 11:48:09;;;;;;;1999.90;999.90;;;4.40;99.90;;;;;;5057718;28;20513;-70
2023/01/28 11:50:57;;;;;;;1999.90;999.90;;;4.40;99.90;;;;;;4988868;28;20780;-69
2023/01/28 11:53:39;;;;;;;1999.90;999.90;;;4.10;99.90;;;;;;5055809;28;20936;-69
2023/01/28 11:56:23;;;;;;;1999.90;999.90;;;4.00;99.90;;;;;;5055960;28;20402;-69
2023/01/28 11:59:03;;;;;;;1999.90;999.90;;;3.90;99.90;;;;;;5056422;28;20398;-69
2023/01/28 12:01:46;;;;;;;1999.90;999.90;;;4.00;99.90;;;;;;5057368;28;20482;-69
2023/01/28 12:04:21;;;;;;;1999.90;999.90;;;4.00;99.90;;;;;;5056390;28;20483;-69
2023/01/28 12:07:12;;;;;;;1999.90;999.90;;;3.90;99.90;;;;;;5056958;28;20450;-69
2023/01/28 12:10:17;;;;;;;1999.90;999.90;;;3.80;99.90;;;;;;5053433;28;20409;-69
2023/01/28 12:13:07;;;;;;;1999.90;999.90;;;3.80;99.90;;;;;;5054612;28;20402;-69
2023/01/28 12:15:38;;;;;;;1999.90;999.90;;;3.90;99.90;;;;;;5055856;28;20489;-69
2023/01/28 12:18:06;;;;;;;1999.90;999.90;;;3.90;99.90;;;;;;5054522;28;20203;-69
2023/01/28 12:21:08;;;;;;;1999.90;999.90;;;3.90;99.90;;;;;;5055443;28;20555;-69
2023/01/28 12:23:52;;;;;;;1999.90;999.90;;;3.90;99.90;;;;;;5057867;28;20203;-69
2023/01/28 12:26:40;;;;;;;1999.90;999.90;;;3.90;99.90;;;;;;5058100;28;20199;-69
2023/01/28 12:29:24;;;;;;;1999.90;999.90;;;3.90;99.90;;;;;;5058569;28;20394;-70
2023/01/28 12:32:11;;;;;;;1999.90;999.90;;;4.00;99.90;;;;;;5058677;28;20918;-69
2023/01/28 12:34:45;;;;;;;1999.90;999.90;;;4.10;99.90;;;;;;5058926;28;20906;-69
2023/01/28 12:37:26;;;;;;;1999.90;999.90;;;4.10;99.90;;;;;;5058921;28;20413;-69
2023/01/28 12:40:01;;;;;;;1999.90;999.90;;;4.10;99.90;;;;;;5058184;28;20176;-69
2023/01/28 12:42:37;;;;;;;1999.90;999.90;;;4.10;99.90;;;;;;5058636;28;20727;-69
2023/01/28 12:45:26;;;;;;;1999.90;999.90;;;4.00;99.90;;;;;;5058044;28;20445;-69
2023/01/28 12:48:11;;;;;;;1999.90;999.90;;;3.90;99.90;;;;;;5057895;28;20199;-69
2023/01/28 12:50:44;;;;;;;1999.90;999.90;;;4.00;99.90;;;;;;5057714;28;20754;-69